sensor_id;sensor_type;location;lat;lon;timestamp;P1;durP1;ratioP1;P2;durP2;ratioP2
29916;SDS011;16786;49.466;11.068;2023-03-01T00:01:29;29.80;;;16.73;;
29916;SDS011;16786;49.466;11.068;2023-03-01T00:03:57;30.55;;;17.05;;
29916;SDS011;16786;49.466;11.068;2023-03-01T00:06:26;33.47;;;18.50;;
29916;SDS011;16786;49.466;11.068;2023-03-01T00:08:54;28.40;;;17.65;;
29916;SDS011;16786;49.466;11.068;2023-03-01T00:11:23;28.92;;;16.48;;
29916;SDS011;16786;49.466;11.068;2023-03-01T00:13:53;34.17;;;18.60;;
29916;SDS011;16786;49.466;11.068;2023-03-01T00:16:26;28.35;;;16.83;;
29916;SDS011;16786;49.466;11.068;2023-03-01T00:18:56;30.02;;;16.98;;
29916;SDS011;16786;49.466;11.068;2023-03-01T00:21:24;31.15;;;17.48;;
29916;SDS011;16786;49.466;11.068;2023-03-01T00:23:52;30.70;;;16.90;;
29916;SDS011;16786;49.466;11.068;2023-03-01T00:26:21;30.25;;;17.67;;
29916;SDS011;16786;49.466;11.068;2023-03-01T00:28:49;35.33;;;18.67;;
29916;SDS011;16786;49.466;11.068;2023-03-01T00:31:19;31.05;;;18.85;;
29916;SDS011;16786;49.466;11.068;2023-03-01T00:33:47;37.65;;;17.75;;
29916;SDS011;16786;49.466;11.068;2023-03-01T00:36:15;29.75;;;17.13;;
29916;SDS011;16786;49.466;11.068;2023-03-01T00:38:43;32.33;;;18.70;;
29916;SDS011;16786;49.466;11.068;2023-03-01T00:41:13;27.25;;;16.05;;
29916;SDS011;16786;49.466;11.068;2023-03-01T00:43:42;27.27;;;16.77;;
29916;SDS011;16786;49.466;11.068;2023-03-01T00:46:14;29.27;;;17.38;;
29916;SDS011;16786;49.466;11.068;2023-03-01T00:48:46;28.90;;;16.23;;
29916;SDS011;16786;49.466;11.068;2023-03-01T00:51:15;29.52;;;17.58;;
29916;SDS011;16786;49.466;11.068;2023-03-01T00:53:50;30.13;;;17.25;;
29916;SDS011;16786;49.466;11.068;2023-03-01T00:56:19;30.17;;;16.80;;
29916;SDS011;16786;49.466;11.068;2023-03-01T00:58:47;36.13;;;18.30;;
29916;SDS011;16786;49.466;11.068;2023-03-01T01:01:16;32.10;;;18.20;;
29916;SDS011;16786;49.466;11.068;2023-03-01T01:06:24;29.77;;;17.25;;
29916;SDS011;16786;49.466;11.068;2023-03-01T01:08:57;28.70;;;16.67;;
29916;SDS011;16786;49.466;11.068;2023-03-01T01:11:25;29.77;;;17.63;;
29916;SDS011;16786;49.466;11.068;2023-03-01T01:13:55;29.58;;;17.92;;
29916;SDS011;16786;49.466;11.068;2023-03-01T01:16:24;30.10;;;17.70;;
29916;SDS011;16786;49.466;11.068;2023-03-01T01:18:53;41.95;;;20.63;;
29916;SDS011;16786;49.466;11.068;2023-03-01T01:21:22;34.58;;;18.77;;
29916;SDS011;16786;49.466;11.068;2023-03-01T01:23:51;31.88;;;17.45;;
29916;SDS011;16786;49.466;11.068;2023-03-01T01:26:23;36.15;;;18.95;;
29916;SDS011;16786;49.466;11.068;2023-03-01T01:28:53;32.03;;;17.73;;
29916;SDS011;16786;49.466;11.068;2023-03-01T01:31:21;30.50;;;18.20;;
29916;SDS011;16786;49.466;11.068;2023-03-01T01:33:52;32.60;;;16.90;;
29916;SDS011;16786;49.466;11.068;2023-03-01T01:36:20;33.65;;;18.02;;
29916;SDS011;16786;49.466;11.068;2023-03-01T01:38:48;30.98;;;17.25;;
29916;SDS011;16786;49.466;11.068;2023-03-01T01:41:15;31.55;;;17.83;;
29916;SDS011;16786;49.466;11.068;2023-03-01T01:43:44;34.78;;;19.00;;
29916;SDS011;16786;49.466;11.068;2023-03-01T01:48:45;30.52;;;17.58;;
29916;SDS011;16786;49.466;11.068;2023-03-01T01:51:19;29.75;;;17.90;;
29916;SDS011;16786;49.466;11.068;2023-03-01T01:53:53;32.05;;;17.83;;
29916;SDS011;16786;49.466;11.068;2023-03-01T01:56:25;31.50;;;18.67;;
29916;SDS011;16786;49.466;11.068;2023-03-01T01:58:55;32.72;;;17.63;;
29916;SDS011;16786;49.466;11.068;2023-03-01T02:01:24;32.33;;;17.55;;
29916;SDS011;16786;49.466;11.068;2023-03-01T02:03:52;32.30;;;18.23;;
29916;SDS011;16786;49.466;11.068;2023-03-01T02:06:27;31.20;;;17.13;;
29916;SDS011;16786;49.466;11.068;2023-03-01T02:09:05;36.72;;;18.25;;
29916;SDS011;16786;49.466;11.068;2023-03-01T02:11:37;33.33;;;17.40;;
29916;SDS011;16786;49.466;11.068;2023-03-01T02:14:05;31.90;;;18.02;;
29916;SDS011;16786;49.466;11.068;2023-03-01T02:16:32;38.67;;;19.73;;
29916;SDS011;16786;49.466;11.068;2023-03-01T02:19:00;37.58;;;20.00;;
29916;SDS011;16786;49.466;11.068;2023-03-01T02:21:38;34.00;;;19.38;;
29916;SDS011;16786;49.466;11.068;2023-03-01T02:26:47;30.23;;;18.23;;
29916;SDS011;16786;49.466;11.068;2023-03-01T02:29:18;35.83;;;18.35;;
29916;SDS011;16786;49.466;11.068;2023-03-01T02:31:46;32.13;;;18.52;;
29916;SDS011;16786;49.466;11.068;2023-03-01T02:34:15;35.22;;;18.98;;
29916;SDS011;16786;49.466;11.068;2023-03-01T02:39:47;34.92;;;17.45;;
29916;SDS011;16786;49.466;11.068;2023-03-01T02:42:30;35.17;;;18.38;;
29916;SDS011;16786;49.466;11.068;2023-03-01T02:45:02;36.85;;;18.15;;
29916;SDS011;16786;49.466;11.068;2023-03-01T02:47:30;35.97;;;18.42;;
29916;SDS011;16786;49.466;11.068;2023-03-01T02:49:57;33.10;;;18.70;;
29916;SDS011;16786;49.466;11.068;2023-03-01T02:55:11;31.00;;;17.63;;
29916;SDS011;16786;49.466;11.068;2023-03-01T03:00:18;35.85;;;17.15;;
29916;SDS011;16786;49.466;11.068;2023-03-01T03:02:49;34.55;;;18.23;;
29916;SDS011;16786;49.466;11.068;2023-03-01T03:05:22;35.45;;;18.13;;
29916;SDS011;16786;49.466;11.068;2023-03-01T03:07:55;32.47;;;16.83;;
29916;SDS011;16786;49.466;11.068;2023-03-01T03:10:24;33.15;;;18.25;;
29916;SDS011;16786;49.466;11.068;2023-03-01T03:12:55;31.10;;;18.05;;
29916;SDS011;16786;49.466;11.068;2023-03-01T03:15:27;33.13;;;17.15;;
29916;SDS011;16786;49.466;11.068;2023-03-01T03:17:56;29.33;;;17.75;;
29916;SDS011;16786;49.466;11.068;2023-03-01T03:20:25;35.63;;;18.92;;
29916;SDS011;16786;49.466;11.068;2023-03-01T03:22:54;32.42;;;18.40;;
29916;SDS011;16786;49.466;11.068;2023-03-01T03:25:25;32.20;;;18.15;;
29916;SDS011;16786;49.466;11.068;2023-03-01T03:27:54;33.58;;;18.05;;
29916;SDS011;16786;49.466;11.068;2023-03-01T03:30:26;30.70;;;17.58;;
29916;SDS011;16786;49.466;11.068;2023-03-01T03:32:56;37.30;;;19.10;;
29916;SDS011;16786;49.466;11.068;2023-03-01T03:35:28;33.35;;;16.95;;
29916;SDS011;16786;49.466;11.068;2023-03-01T03:38:05;32.47;;;18.35;;
29916;SDS011;16786;49.466;11.068;2023-03-01T03:40:36;31.80;;;18.45;;
29916;SDS011;16786;49.466;11.068;2023-03-01T03:43:06;30.05;;;17.45;;
29916;SDS011;16786;49.466;11.068;2023-03-01T03:45:35;32.55;;;16.60;;
29916;SDS011;16786;49.466;11.068;2023-03-01T03:48:04;32.13;;;17.83;;
29916;SDS011;16786;49.466;11.068;2023-03-01T03:50:33;31.23;;;17.85;;
29916;SDS011;16786;49.466;11.068;2023-03-01T03:53:01;29.67;;;17.05;;
29916;SDS011;16786;49.466;11.068;2023-03-01T03:55:30;31.25;;;18.42;;
29916;SDS011;16786;49.466;11.068;2023-03-01T03:58:01;30.90;;;17.52;;
29916;SDS011;16786;49.466;11.068;2023-03-01T04:00:37;33.30;;;18.50;;
29916;SDS011;16786;49.466;11.068;2023-03-01T04:03:07;32.10;;;18.52;;
29916;SDS011;16786;49.466;11.068;2023-03-01T04:05:35;39.70;;;20.13;;
29916;SDS011;16786;49.466;11.068;2023-03-01T04:08:03;39.30;;;19.90;;
29916;SDS011;16786;49.466;11.068;2023-03-01T04:10:35;34.53;;;18.75;;
29916;SDS011;16786;49.466;11.068;2023-03-01T04:13:05;33.42;;;18.85;;
29916;SDS011;16786;49.466;11.068;2023-03-01T04:15:33;36.55;;;17.75;;
29916;SDS011;16786;49.466;11.068;2023-03-01T04:18:01;29.10;;;17.70;;
29916;SDS011;16786;49.466;11.068;2023-03-01T04:20:30;31.55;;;17.65;;
29916;SDS011;16786;49.466;11.068;2023-03-01T04:25:38;32.90;;;17.67;;
29916;SDS011;16786;49.466;11.068;2023-03-01T04:28:41;31.20;;;18.63;;
29916;SDS011;16786;49.466;11.068;2023-03-01T04:31:12;32.08;;;18.38;;
29916;SDS011;16786;49.466;11.068;2023-03-01T04:33:46;32.78;;;18.63;;
29916;SDS011;16786;49.466;11.068;2023-03-01T04:36:15;30.40;;;17.58;;
29916;SDS011;16786;49.466;11.068;2023-03-01T04:38:44;34.05;;;17.40;;
29916;SDS011;16786;49.466;11.068;2023-03-01T04:41:16;32.45;;;18.20;;
29916;SDS011;16786;49.466;11.068;2023-03-01T04:43:44;32.03;;;17.65;;
29916;SDS011;16786;49.466;11.068;2023-03-01T04:46:13;40.90;;;21.88;;
29916;SDS011;16786;49.466;11.068;2023-03-01T04:48:43;41.83;;;22.95;;
29916;SDS011;16786;49.466;11.068;2023-03-01T04:51:11;44.83;;;23.60;;
29916;SDS011;16786;49.466;11.068;2023-03-01T04:53:40;44.08;;;22.05;;
29916;SDS011;16786;49.466;11.068;2023-03-01T04:56:08;42.72;;;20.67;;
29916;SDS011;16786;49.466;11.068;2023-03-01T04:58:36;37.38;;;20.15;;
29916;SDS011;16786;49.466;11.068;2023-03-01T05:01:08;35.47;;;19.65;;
29916;SDS011;16786;49.466;11.068;2023-03-01T05:03:42;34.25;;;18.02;;
29916;SDS011;16786;49.466;11.068;2023-03-01T05:06:10;32.53;;;18.05;;
29916;SDS011;16786;49.466;11.068;2023-03-01T05:08:38;37.58;;;18.85;;
29916;SDS011;16786;49.466;11.068;2023-03-01T05:11:07;33.50;;;18.50;;
29916;SDS011;16786;49.466;11.068;2023-03-01T05:13:36;32.85;;;18.92;;
29916;SDS011;16786;49.466;11.068;2023-03-01T05:16:04;35.28;;;20.08;;
29916;SDS011;16786;49.466;11.068;2023-03-01T05:18:33;35.33;;;18.17;;
29916;SDS011;16786;49.466;11.068;2023-03-01T05:21:05;33.85;;;18.90;;
29916;SDS011;16786;49.466;11.068;2023-03-01T05:23:37;32.50;;;18.63;;
29916;SDS011;16786;49.466;11.068;2023-03-01T05:26:05;34.85;;;19.88;;
29916;SDS011;16786;49.466;11.068;2023-03-01T05:28:48;39.55;;;19.85;;
29916;SDS011;16786;49.466;11.068;2023-03-01T05:31:15;40.08;;;21.15;;
29916;SDS011;16786;49.466;11.068;2023-03-01T05:33:42;45.40;;;22.42;;
29916;SDS011;16786;49.466;11.068;2023-03-01T05:36:10;46.13;;;23.88;;
29916;SDS011;16786;49.466;11.068;2023-03-01T05:38:37;48.67;;;24.33;;
29916;SDS011;16786;49.466;11.068;2023-03-01T05:41:04;45.83;;;23.20;;
29916;SDS011;16786;49.466;11.068;2023-03-01T05:43:32;42.72;;;24.08;;
29916;SDS011;16786;49.466;11.068;2023-03-01T05:46:02;48.83;;;22.77;;
29916;SDS011;16786;49.466;11.068;2023-03-01T05:48:29;40.85;;;21.88;;
29916;SDS011;16786;49.466;11.068;2023-03-01T05:50:58;42.60;;;22.15;;
29916;SDS011;16786;49.466;11.068;2023-03-01T05:53:27;41.75;;;22.23;;
29916;SDS011;16786;49.466;11.068;2023-03-01T05:55:54;46.17;;;22.00;;
29916;SDS011;16786;49.466;11.068;2023-03-01T05:58:21;43.13;;;21.23;;
29916;SDS011;16786;49.466;11.068;2023-03-01T06:00:49;47.65;;;22.50;;
29916;SDS011;16786;49.466;11.068;2023-03-01T06:03:18;47.45;;;23.25;;
29916;SDS011;16786;49.466;11.068;2023-03-01T06:05:46;42.13;;;22.77;;
29916;SDS011;16786;49.466;11.068;2023-03-01T06:08:13;42.22;;;23.15;;
29916;SDS011;16786;49.466;11.068;2023-03-01T06:10:40;42.45;;;21.13;;
29916;SDS011;16786;49.466;11.068;2023-03-01T06:13:08;49.20;;;20.85;;
29916;SDS011;16786;49.466;11.068;2023-03-01T06:15:35;36.38;;;19.23;;
29916;SDS011;16786;49.466;11.068;2023-03-01T06:18:02;41.95;;;20.52;;
29916;SDS011;16786;49.466;11.068;2023-03-01T06:20:30;41.75;;;21.27;;
29916;SDS011;16786;49.466;11.068;2023-03-01T06:22:57;41.85;;;21.83;;
29916;SDS011;16786;49.466;11.068;2023-03-01T06:25:25;39.92;;;20.52;;
29916;SDS011;16786;49.466;11.068;2023-03-01T06:27:53;39.70;;;20.48;;
29916;SDS011;16786;49.466;11.068;2023-03-01T06:30:21;40.22;;;21.10;;
29916;SDS011;16786;49.466;11.068;2023-03-01T06:32:50;43.15;;;20.88;;
29916;SDS011;16786;49.466;11.068;2023-03-01T06:35:21;40.35;;;19.08;;
29916;SDS011;16786;49.466;11.068;2023-03-01T06:37:49;39.50;;;20.40;;
29916;SDS011;16786;49.466;11.068;2023-03-01T06:40:16;43.03;;;19.63;;
29916;SDS011;16786;49.466;11.068;2023-03-01T06:42:47;39.15;;;21.00;;
29916;SDS011;16786;49.466;11.068;2023-03-01T06:47:43;42.92;;;19.58;;
29916;SDS011;16786;49.466;11.068;2023-03-01T06:50:10;36.05;;;19.90;;
29916;SDS011;16786;49.466;11.068;2023-03-01T06:52:38;35.10;;;19.05;;
29916;SDS011;16786;49.466;11.068;2023-03-01T06:55:06;39.35;;;19.67;;
29916;SDS011;16786;49.466;11.068;2023-03-01T06:57:34;35.53;;;18.65;;
29916;SDS011;16786;49.466;11.068;2023-03-01T07:00:02;33.03;;;18.13;;
29916;SDS011;16786;49.466;11.068;2023-03-01T07:02:30;36.22;;;20.63;;
29916;SDS011;16786;49.466;11.068;2023-03-01T07:04:58;31.73;;;18.05;;
29916;SDS011;16786;49.466;11.068;2023-03-01T07:07:25;32.40;;;18.48;;
29916;SDS011;16786;49.466;11.068;2023-03-01T07:09:52;36.85;;;20.48;;
29916;SDS011;16786;49.466;11.068;2023-03-01T07:12:21;37.75;;;20.23;;
29916;SDS011;16786;49.466;11.068;2023-03-01T07:14:48;35.92;;;19.27;;
29916;SDS011;16786;49.466;11.068;2023-03-01T07:17:15;40.17;;;22.08;;
29916;SDS011;16786;49.466;11.068;2023-03-01T07:19:42;38.50;;;20.80;;
29916;SDS011;16786;49.466;11.068;2023-03-01T07:22:11;41.85;;;21.58;;
29916;SDS011;16786;49.466;11.068;2023-03-01T07:24:38;35.83;;;19.88;;
29916;SDS011;16786;49.466;11.068;2023-03-01T07:27:07;35.33;;;19.83;;
29916;SDS011;16786;49.466;11.068;2023-03-01T07:29:34;36.58;;;19.50;;
29916;SDS011;16786;49.466;11.068;2023-03-01T07:32:03;34.40;;;20.10;;
29916;SDS011;16786;49.466;11.068;2023-03-01T07:34:31;38.63;;;20.02;;
29916;SDS011;16786;49.466;11.068;2023-03-01T07:36:59;35.42;;;19.35;;
29916;SDS011;16786;49.466;11.068;2023-03-01T07:39:26;34.00;;;19.60;;
29916;SDS011;16786;49.466;11.068;2023-03-01T07:41:53;32.40;;;19.55;;
29916;SDS011;16786;49.466;11.068;2023-03-01T07:44:21;36.42;;;20.08;;
29916;SDS011;16786;49.466;11.068;2023-03-01T07:46:48;33.45;;;19.73;;
29916;SDS011;16786;49.466;11.068;2023-03-01T07:49:16;37.53;;;19.65;;
29916;SDS011;16786;49.466;11.068;2023-03-01T07:51:43;34.15;;;19.83;;
29916;SDS011;16786;49.466;11.068;2023-03-01T07:54:10;36.78;;;21.67;;
29916;SDS011;16786;49.466;11.068;2023-03-01T07:56:37;43.08;;;22.20;;
29916;SDS011;16786;49.466;11.068;2023-03-01T07:59:05;37.10;;;21.17;;
29916;SDS011;16786;49.466;11.068;2023-03-01T08:01:32;35.95;;;20.42;;
29916;SDS011;16786;49.466;11.068;2023-03-01T08:03:59;37.80;;;20.73;;
29916;SDS011;16786;49.466;11.068;2023-03-01T08:06:28;37.55;;;21.88;;
29916;SDS011;16786;49.466;11.068;2023-03-01T08:08:55;38.67;;;21.02;;
29916;SDS011;16786;49.466;11.068;2023-03-01T08:11:23;37.53;;;21.33;;
29916;SDS011;16786;49.466;11.068;2023-03-01T08:13:50;37.67;;;21.25;;
29916;SDS011;16786;49.466;11.068;2023-03-01T08:16:19;36.88;;;21.02;;
29916;SDS011;16786;49.466;11.068;2023-03-01T08:18:46;37.85;;;19.55;;
29916;SDS011;16786;49.466;11.068;2023-03-01T08:21:15;35.75;;;20.00;;
29916;SDS011;16786;49.466;11.068;2023-03-01T08:23:43;37.90;;;21.15;;
29916;SDS011;16786;49.466;11.068;2023-03-01T08:28:43;34.17;;;20.08;;
29916;SDS011;16786;49.466;11.068;2023-03-01T08:33:50;39.60;;;20.45;;
29916;SDS011;16786;49.466;11.068;2023-03-01T08:36:22;34.17;;;20.10;;
29916;SDS011;16786;49.466;11.068;2023-03-01T08:38:51;35.03;;;19.95;;
29916;SDS011;16786;49.466;11.068;2023-03-01T08:41:19;33.20;;;20.00;;
29916;SDS011;16786;49.466;11.068;2023-03-01T08:43:46;34.42;;;20.58;;
29916;SDS011;16786;49.466;11.068;2023-03-01T08:46:14;33.25;;;21.08;;
29916;SDS011;16786;49.466;11.068;2023-03-01T08:48:41;35.30;;;20.17;;
29916;SDS011;16786;49.466;11.068;2023-03-01T08:51:14;32.15;;;19.70;;
29916;SDS011;16786;49.466;11.068;2023-03-01T08:53:44;31.77;;;19.58;;
29916;SDS011;16786;49.466;11.068;2023-03-01T08:56:12;36.38;;;19.77;;
29916;SDS011;16786;49.466;11.068;2023-03-01T08:58:39;37.58;;;19.88;;
29916;SDS011;16786;49.466;11.068;2023-03-01T09:01:10;31.20;;;19.77;;
29916;SDS011;16786;49.466;11.068;2023-03-01T09:03:39;34.80;;;20.10;;
29916;SDS011;16786;49.466;11.068;2023-03-01T09:06:06;33.97;;;20.00;;
29916;SDS011;16786;49.466;11.068;2023-03-01T09:08:38;31.63;;;19.48;;
29916;SDS011;16786;49.466;11.068;2023-03-01T09:11:07;27.15;;;17.25;;
29916;SDS011;16786;49.466;11.068;2023-03-01T09:13:35;31.85;;;19.15;;
29916;SDS011;16786;49.466;11.068;2023-03-01T09:16:03;32.10;;;20.10;;
29916;SDS011;16786;49.466;11.068;2023-03-01T09:18:33;30.95;;;20.02;;
29916;SDS011;16786;49.466;11.068;2023-03-01T09:21:02;33.25;;;19.45;;
29916;SDS011;16786;49.466;11.068;2023-03-01T09:23:34;30.40;;;19.55;;
29916;SDS011;16786;49.466;11.068;2023-03-01T09:26:06;34.92;;;20.30;;
29916;SDS011;16786;49.466;11.068;2023-03-01T09:28:36;29.15;;;18.27;;
29916;SDS011;16786;49.466;11.068;2023-03-01T09:31:04;33.40;;;19.98;;
29916;SDS011;16786;49.466;11.068;2023-03-01T09:33:32;32.90;;;19.90;;
29916;SDS011;16786;49.466;11.068;2023-03-01T09:36:03;33.88;;;19.10;;
29916;SDS011;16786;49.466;11.068;2023-03-01T09:38:34;34.40;;;19.63;;
29916;SDS011;16786;49.466;11.068;2023-03-01T09:41:02;33.17;;;18.58;;
29916;SDS011;16786;49.466;11.068;2023-03-01T09:46:12;33.08;;;20.02;;
29916;SDS011;16786;49.466;11.068;2023-03-01T09:48:44;37.75;;;21.42;;
29916;SDS011;16786;49.466;11.068;2023-03-01T09:51:17;34.25;;;19.52;;
29916;SDS011;16786;49.466;11.068;2023-03-01T09:53:50;37.67;;;22.15;;
29916;SDS011;16786;49.466;11.068;2023-03-01T09:59:40;36.25;;;19.75;;
29916;SDS011;16786;49.466;11.068;2023-03-01T10:08:26;33.05;;;20.40;;
29916;SDS011;16786;49.466;11.068;2023-03-01T10:10:56;36.03;;;20.23;;
29916;SDS011;16786;49.466;11.068;2023-03-01T10:13:45;30.40;;;20.48;;
29916;SDS011;16786;49.466;11.068;2023-03-01T10:16:43;27.67;;;18.73;;
29916;SDS011;16786;49.466;11.068;2023-03-01T10:19:20;30.58;;;19.92;;
29916;SDS011;16786;49.466;11.068;2023-03-01T10:21:51;35.22;;;19.88;;
29916;SDS011;16786;49.466;11.068;2023-03-01T10:24:19;33.47;;;19.20;;
29916;SDS011;16786;49.466;11.068;2023-03-01T10:29:31;32.45;;;19.65;;
29916;SDS011;16786;49.466;11.068;2023-03-01T10:32:12;32.75;;;19.27;;
29916;SDS011;16786;49.466;11.068;2023-03-01T10:34:39;36.53;;;20.08;;
29916;SDS011;16786;49.466;11.068;2023-03-01T10:42:38;34.30;;;19.33;;
29916;SDS011;16786;49.466;11.068;2023-03-01T10:47:45;37.65;;;21.88;;
29916;SDS011;16786;49.466;11.068;2023-03-01T10:50:20;32.88;;;20.23;;
29916;SDS011;16786;49.466;11.068;2023-03-01T10:52:55;27.75;;;19.35;;
29916;SDS011;16786;49.466;11.068;2023-03-01T10:55:27;33.03;;;20.10;;
29916;SDS011;16786;49.466;11.068;2023-03-01T10:58:19;30.75;;;19.63;;
29916;SDS011;16786;49.466;11.068;2023-03-01T11:00:52;28.02;;;19.13;;
29916;SDS011;16786;49.466;11.068;2023-03-01T11:17:01;27.63;;;17.50;;
29916;SDS011;16786;49.466;11.068;2023-03-01T11:22:49;26.20;;;17.77;;
29916;SDS011;16786;49.466;11.068;2023-03-01T11:25:40;30.58;;;21.23;;
29916;SDS011;16786;49.466;11.068;2023-03-01T11:28:12;29.38;;;19.75;;
29916;SDS011;16786;49.466;11.068;2023-03-01T11:42:20;26.10;;;17.50;;
29916;SDS011;16786;49.466;11.068;2023-03-01T11:44:56;23.55;;;17.00;;
29916;SDS011;16786;49.466;11.068;2023-03-01T11:52:56;24.38;;;17.67;;
29916;SDS011;16786;49.466;11.068;2023-03-01T12:04:30;23.80;;;18.55;;
29916;SDS011;16786;49.466;11.068;2023-03-01T12:10:25;23.67;;;16.83;;
29916;SDS011;16786;49.466;11.068;2023-03-01T12:13:39;23.65;;;15.90;;
29916;SDS011;16786;49.466;11.068;2023-03-01T12:36:36;21.98;;;16.42;;
29916;SDS011;16786;49.466;11.068;2023-03-01T12:38:49;22.55;;;17.27;;
29916;SDS011;16786;49.466;11.068;2023-03-01T12:41:38;26.48;;;17.27;;
29916;SDS011;16786;49.466;11.068;2023-03-01T12:47:15;24.10;;;17.15;;
29916;SDS011;16786;49.466;11.068;2023-03-01T12:49:54;23.73;;;17.02;;
29916;SDS011;16786;49.466;11.068;2023-03-01T12:52:29;20.73;;;15.77;;
29916;SDS011;16786;49.466;11.068;2023-03-01T12:55:07;22.65;;;15.57;;
29916;SDS011;16786;49.466;11.068;2023-03-01T12:57:48;22.63;;;16.53;;
29916;SDS011;16786;49.466;11.068;2023-03-01T13:00:45;19.45;;;15.50;;
29916;SDS011;16786;49.466;11.068;2023-03-01T13:20:47;17.20;;;15.15;;
29916;SDS011;16786;49.466;11.068;2023-03-01T13:34:03;15.60;;;14.00;;
29916;SDS011;16786;49.466;11.068;2023-03-01T13:39:03;15.85;;;14.18;;
29916;SDS011;16786;49.466;11.068;2023-03-01T13:41:54;17.42;;;14.60;;
29916;SDS011;16786;49.466;11.068;2023-03-01T13:47:12;18.45;;;16.13;;
29916;SDS011;16786;49.466;11.068;2023-03-01T13:49:47;16.05;;;14.35;;
29916;SDS011;16786;49.466;11.068;2023-03-01T13:57:47;15.90;;;14.23;;
29916;SDS011;16786;49.466;11.068;2023-03-01T14:00:25;15.18;;;13.57;;
29916;SDS011;16786;49.466;11.068;2023-03-01T14:05:38;15.73;;;14.00;;
29916;SDS011;16786;49.466;11.068;2023-03-01T14:08:17;17.13;;;15.18;;
29916;SDS011;16786;49.466;11.068;2023-03-01T14:19:26;16.75;;;15.15;;
29916;SDS011;16786;49.466;11.068;2023-03-01T14:24:47;16.42;;;14.63;;
29916;SDS011;16786;49.466;11.068;2023-03-01T14:27:18;20.20;;;15.35;;
29916;SDS011;16786;49.466;11.068;2023-03-01T14:29:58;16.33;;;14.63;;
29916;SDS011;16786;49.466;11.068;2023-03-01T14:32:28;20.42;;;15.65;;
29916;SDS011;16786;49.466;11.068;2023-03-01T14:34:59;18.52;;;15.85;;
29916;SDS011;16786;49.466;11.068;2023-03-01T14:40:01;17.83;;;16.13;;
29916;SDS011;16786;49.466;11.068;2023-03-01T14:42:31;16.80;;;15.10;;
29916;SDS011;16786;49.466;11.068;2023-03-01T14:45:02;21.63;;;15.60;;
29916;SDS011;16786;49.466;11.068;2023-03-01T14:47:33;24.17;;;17.52;;
29916;SDS011;16786;49.466;11.068;2023-03-01T14:52:31;18.42;;;15.20;;
29916;SDS011;16786;49.466;11.068;2023-03-01T14:55:18;17.98;;;16.15;;
29916;SDS011;16786;49.466;11.068;2023-03-01T14:57:48;16.95;;;15.15;;
29916;SDS011;16786;49.466;11.068;2023-03-01T15:00:27;16.52;;;14.93;;
29916;SDS011;16786;49.466;11.068;2023-03-01T15:02:56;16.13;;;14.52;;
29916;SDS011;16786;49.466;11.068;2023-03-01T15:05:30;18.73;;;15.32;;
29916;SDS011;16786;49.466;11.068;2023-03-01T15:07:59;16.48;;;14.77;;
29916;SDS011;16786;49.466;11.068;2023-03-01T15:10:30;18.40;;;15.68;;
29916;SDS011;16786;49.466;11.068;2023-03-01T15:13:12;17.15;;;15.45;;
29916;SDS011;16786;49.466;11.068;2023-03-01T15:15:50;16.63;;;14.70;;
29916;SDS011;16786;49.466;11.068;2023-03-01T15:18:21;15.90;;;14.30;;
29916;SDS011;16786;49.466;11.068;2023-03-01T15:20:53;16.25;;;14.55;;
29916;SDS011;16786;49.466;11.068;2023-03-01T15:23:25;16.77;;;15.07;;
29916;SDS011;16786;49.466;11.068;2023-03-01T15:25:55;16.23;;;14.60;;
29916;SDS011;16786;49.466;11.068;2023-03-01T15:28:24;15.27;;;13.77;;
29916;SDS011;16786;49.466;11.068;2023-03-01T15:31:13;16.05;;;14.45;;
29916;SDS011;16786;49.466;11.068;2023-03-01T15:33:47;15.98;;;14.02;;
29916;SDS011;16786;49.466;11.068;2023-03-01T15:44:33;16.60;;;14.77;;
29916;SDS011;16786;49.466;11.068;2023-03-01T15:50:18;15.43;;;13.55;;
29916;SDS011;16786;49.466;11.068;2023-03-01T15:52:49;20.17;;;14.48;;
29916;SDS011;16786;49.466;11.068;2023-03-01T15:57:46;16.33;;;14.13;;
29916;SDS011;16786;49.466;11.068;2023-03-01T16:00:15;15.52;;;13.90;;
29916;SDS011;16786;49.466;11.068;2023-03-01T16:02:44;16.60;;;14.75;;
29916;SDS011;16786;49.466;11.068;2023-03-01T16:07:47;16.80;;;14.93;;
29916;SDS011;16786;49.466;11.068;2023-03-01T16:10:15;16.17;;;14.48;;
29916;SDS011;16786;49.466;11.068;2023-03-01T16:12:42;16.85;;;15.05;;
29916;SDS011;16786;49.466;11.068;2023-03-01T16:17:48;20.30;;;16.52;;
29916;SDS011;16786;49.466;11.068;2023-03-01T16:20:21;17.63;;;15.65;;
29916;SDS011;16786;49.466;11.068;2023-03-01T16:22:54;17.88;;;16.08;;
29916;SDS011;16786;49.466;11.068;2023-03-01T16:25:24;20.10;;;15.95;;
29916;SDS011;16786;49.466;11.068;2023-03-01T16:27:52;18.75;;;16.35;;
29916;SDS011;16786;49.466;11.068;2023-03-01T16:30:20;17.17;;;15.32;;
29916;SDS011;16786;49.466;11.068;2023-03-01T16:32:49;18.98;;;15.57;;
29916;SDS011;16786;49.466;11.068;2023-03-01T16:35:18;18.73;;;16.13;;
29916;SDS011;16786;49.466;11.068;2023-03-01T16:37:47;18.00;;;15.70;;
29916;SDS011;16786;49.466;11.068;2023-03-01T16:40:23;19.98;;;16.25;;
29916;SDS011;16786;49.466;11.068;2023-03-01T16:42:53;20.10;;;16.17;;
29916;SDS011;16786;49.466;11.068;2023-03-01T16:45:26;21.35;;;16.48;;
29916;SDS011;16786;49.466;11.068;2023-03-01T16:47:55;19.92;;;16.33;;
29916;SDS011;16786;49.466;11.068;2023-03-01T16:50:22;20.98;;;15.80;;
29916;SDS011;16786;49.466;11.068;2023-03-01T16:52:49;20.13;;;16.10;;
29916;SDS011;16786;49.466;11.068;2023-03-01T16:55:17;27.15;;;17.52;;
29916;SDS011;16786;49.466;11.068;2023-03-01T16:57:44;22.80;;;17.65;;
29916;SDS011;16786;49.466;11.068;2023-03-01T17:00:12;21.88;;;16.77;;
29916;SDS011;16786;49.466;11.068;2023-03-01T17:02:40;23.23;;;17.85;;
29916;SDS011;16786;49.466;11.068;2023-03-01T17:05:08;22.50;;;17.33;;
29916;SDS011;16786;49.466;11.068;2023-03-01T17:07:38;26.13;;;18.55;;
29916;SDS011;16786;49.466;11.068;2023-03-01T17:10:07;23.52;;;17.05;;
29916;SDS011;16786;49.466;11.068;2023-03-01T17:12:36;25.13;;;18.30;;
29916;SDS011;16786;49.466;11.068;2023-03-01T17:15:04;25.98;;;17.58;;
29916;SDS011;16786;49.466;11.068;2023-03-01T17:17:32;26.55;;;18.15;;
29916;SDS011;16786;49.466;11.068;2023-03-01T17:20:01;26.70;;;17.15;;
29916;SDS011;16786;49.466;11.068;2023-03-01T17:22:30;23.67;;;16.63;;
29916;SDS011;16786;49.466;11.068;2023-03-01T17:24:57;25.48;;;16.77;;
29916;SDS011;16786;49.466;11.068;2023-03-01T17:27:25;25.58;;;17.67;;
29916;SDS011;16786;49.466;11.068;2023-03-01T17:29:52;27.40;;;18.10;;
29916;SDS011;16786;49.466;11.068;2023-03-01T17:32:19;27.08;;;18.70;;
29916;SDS011;16786;49.466;11.068;2023-03-01T17:34:47;26.77;;;18.52;;
29916;SDS011;16786;49.466;11.068;2023-03-01T17:37:14;26.48;;;17.65;;
29916;SDS011;16786;49.466;11.068;2023-03-01T17:39:42;26.10;;;18.70;;
29916;SDS011;16786;49.466;11.068;2023-03-01T17:42:09;26.33;;;18.42;;
29916;SDS011;16786;49.466;11.068;2023-03-01T17:44:36;31.83;;;18.75;;